Terminal Aerodrome Forecast
Issued by NWS

Home | Current Version | Previous Version | Text Only | Print | Product List | Glossary On
Versions: 1 2 3 4 5 6 7 8 9 10 11 12 13 14 15 16 17 18 19 20 21 22 23 24 25
000
FTUS43 KDMX 052331
TAFMCW
TAF
KMCW 052331Z 0600/0624 15016G25KT 6SM BR BKN006 OVC110
     FM060300 16012G22KT P6SM BKN008 BKN035
     FM060400 22012KT 3SM -SN BKN005 OVC013
     FM061100 26010KT P6SM BKN025
     FM061600 27021G32KT P6SM BKN035 BKN150=

USA.gov is the U.S. government's official web portal to all federal, state and local government web resources and services.